Time;durP1;ratioP1;P1;durP2;ratioP2;P2;SDS_P1;SDS_P2;PMS_P1;PMS_P2;Temp;Humidity;BMP_temperature;BMP_pressure;BME280_temperature;BME280_humidity;BME280_pressure;Samples;Min_cycle;Max_cycle;Signal;HPM_P1;HPM_P2
2022/10/25 00:02:24;;;;;;;15.33;10.23;;;;;;;12.24;87.88;93308.41;5072985;28;20189;-68
2022/10/25 00:04:49;;;;;;;16.43;11.27;;;;;;;12.13;88.34;93300.88;5072027;28;20643;-69
2022/10/25 00:07:15;;;;;;;14.30;11.17;;;;;;;12.17;88.21;93313.16;5072849;28;20184;-69
2022/10/25 00:09:40;;;;;;;14.30;10.77;;;;;;;12.25;87.40;93298.72;5072409;28;20229;-69
2022/10/25 00:12:06;;;;;;;16.33;10.43;;;;;;;12.16;87.32;93293.28;5071817;28;20228;-69
2022/10/25 00:14:32;;;;;;;12.77;11.57;;;;;;;12.19;87.79;93318.09;5072033;28;20253;-71
2022/10/25 00:16:57;;;;;;;18.70;10.50;;;;;;;12.12;88.10;93309.78;5072820;28;20197;-70
2022/10/25 00:19:23;;;;;;;19.00;10.73;;;;;;;12.28;87.05;93312.03;5071936;28;20229;-69
2022/10/25 00:21:48;;;;;;;16.43;10.27;;;;;;;12.32;86.72;93310.47;5072710;28;20209;-69
2022/10/25 00:24:14;;;;;;;16.97;10.27;;;;;;;12.30;86.56;93307.31;5072290;28;20224;-69
2022/10/25 00:26:40;;;;;;;14.33;10.30;;;;;;;12.35;86.81;93309.13;5072498;28;20188;-69
2022/10/25 00:29:06;;;;;;;13.67;10.73;;;;;;;12.18;86.88;93291.16;5071813;28;20245;-70
2022/10/25 00:31:31;;;;;;;13.33;10.57;;;;;;;12.36;87.07;93314.09;5072411;28;20185;-68
2022/10/25 00:33:57;;;;;;;12.73;11.43;;;;;;;12.24;87.49;93308.41;5071560;28;20293;-68
2022/10/25 00:36:25;;;;;;;12.27;10.73;;;;;;;12.17;88.18;93315.00;5072526;28;20223;-68
2022/10/25 00:38:52;;;;;;;11.60;10.60;;;;;;;12.21;88.18;93311.56;5070755;28;20217;-68
2022/10/25 00:41:20;;;;;;;14.33;10.67;;;;;;;12.20;87.94;93311.84;5072014;28;20221;-68
2022/10/25 00:43:49;;;;;;;12.17;10.60;;;;;;;12.22;87.87;93314.94;5072341;28;20221;-68
2022/10/25 00:46:17;;;;;;;11.43;10.13;;;;;;;12.28;88.13;93313.91;5072001;28;20245;-69
2022/10/25 00:48:58;;;;;;;17.13;11.17;;;;;;;12.17;87.87;93292.19;5071757;28;20231;-69
2022/10/25 00:51:38;;;;;;;18.93;11.20;;;;;;;12.17;88.08;93300.06;5071213;28;20765;-68
2022/10/25 00:54:04;;;;;;;17.07;11.20;;;;;;;12.22;88.14;93289.56;5071748;28;20477;-68
2022/10/25 00:56:34;;;;;;;12.50;11.23;;;;;;;12.21;88.06;93289.84;5069703;28;20204;-68
2022/10/25 00:59:02;;;;;;;14.93;10.83;;;;;;;11.99;88.97;93273.72;5071531;28;20243;-69
2022/10/25 01:01:28;;;;;;;12.93;10.63;;;;;;;12.15;88.41;93283.06;5071948;28;20190;-69
2022/10/25 01:03:56;;;;;;;12.03;10.00;;;;;;;12.08;88.54;93282.56;5071265;28;20228;-69
2022/10/25 01:06:30;;;;;;;12.13;10.27;;;;;;;12.02;89.22;93278.41;5071226;28;20216;-68
2022/10/25 01:08:56;;;;;;;16.10;10.90;;;;;;;12.00;89.04;93281.31;5070549;28;20296;-68
2022/10/25 01:11:22;;;;;;;13.63;11.17;;;;;;;12.02;89.23;93289.69;5071643;28;20243;-68
2022/10/25 01:13:48;;;;;;;18.63;11.03;;;;;;;11.90;89.46;93276.16;5071499;28;20221;-68
2022/10/25 01:16:44;;;;;;;13.93;11.57;;;;;;;11.88;89.75;93285.31;5071409;28;20766;-68
2022/10/25 01:19:44;;;;;;;12.33;10.43;;;;;;;11.85;89.87;93285.84;5070700;28;20248;-69
2022/10/25 01:22:15;;;;;;;14.00;11.40;;;;;;;11.91;89.88;93284.75;5071478;28;20189;-68
2022/10/25 01:25:03;;;;;;;15.83;10.73;;;;;;;11.88;90.34;93274.84;5070860;28;20225;-70
2022/10/25 01:27:37;;;;;;;16.83;10.57;;;;;;;11.91;90.22;93274.28;5071095;28;20256;-69
2022/10/25 01:30:02;;;;;;;20.37;11.03;;;;;;;11.91;89.90;93272.47;5070953;28;20332;-69
2022/10/25 01:32:40;;;;;;;13.93;10.67;;;;;;;11.91;89.96;93276.91;5071499;28;20185;-69
2022/10/25 01:35:37;;;;;;;19.47;11.47;;;;;;;11.89;90.33;93273.81;5068795;28;20211;-69
2022/10/25 01:38:28;;;;;;;16.20;10.43;;;;;;;12.02;89.89;93278.41;5065277;28;20227;-69
2022/10/25 01:41:17;;;;;;;14.33;11.07;;;;;;;11.88;89.86;93270.41;5070876;28;20217;-69
2022/10/25 01:44:15;;;;;;;20.93;10.63;;;;;;;11.87;89.64;93265.44;5069963;28;20222;-66
2022/10/25 01:46:53;;;;;;;11.60;10.40;;;;;;;11.91;89.62;93266.44;5065430;28;20189;-67
2022/10/25 01:49:25;;;;;;;17.17;10.30;;;;;;;11.89;89.61;93268.56;5068930;28;20236;-68
2022/10/25 01:51:50;;;;;;;10.67;9.57;;;;;;;11.80;90.00;93267.56;5069445;28;20237;-67
2022/10/25 01:54:22;;;;;;;11.37;10.40;;;;;;;11.87;89.93;93265.44;5070383;28;20213;-67
2022/10/25 01:57:04;;;;;;;14.13;10.63;;;;;;;11.88;89.51;93261.75;5071029;28;20269;-66
2022/10/25 01:59:52;;;;;;;12.63;10.77;;;;;;;11.89;89.70;93255.50;5069649;28;20233;-67
2022/10/25 02:02:41;;;;;;;14.43;11.43;;;;;;;11.80;90.08;93255.25;5070221;28;20194;-67
2022/10/25 02:05:19;;;;;;;11.93;10.83;;;;;;;11.80;90.40;93254.50;5065529;28;20217;-67
2022/10/25 02:08:17;;;;;;;16.60;11.43;;;;;;;11.86;89.85;93258.66;5069177;28;20185;-67
2022/10/25 02:11:16;;;;;;;14.23;11.33;;;;;;;11.86;90.03;93259.41;5068846;28;20291;-67
2022/10/25 02:13:52;;;;;;;12.77;10.63;;;;;;;11.91;89.29;93264.63;5069829;28;20232;-67
2022/10/25 02:16:44;;;;;;;19.43;11.80;;;;;;;11.68;90.82;93256.63;5069929;28;20201;-66
2022/10/25 02:19:15;;;;;;;19.63;11.57;;;;;;;11.80;90.27;93265.72;5058919;28;20240;-66
2022/10/25 02:21:41;;;;;;;10.60;9.70;;;;;;;11.78;90.32;93267.81;5069763;28;20182;-66
2022/10/25 02:24:20;;;;;;;13.43;10.70;;;;;;;11.76;90.39;93271.75;5069500;28;20296;-68
2022/10/25 02:26:48;;;;;;;11.27;10.27;;;;;;;11.68;91.12;93267.09;5070051;28;20193;-66
2022/10/25 02:29:15;;;;;;;17.83;11.20;;;;;;;11.66;90.97;93262.13;5069565;28;20259;-65
2022/10/25 02:31:42;;;;;;;15.03;10.20;;;;;;;11.48;91.54;93248.84;5069732;28;20188;-67
2022/10/25 02:34:07;;;;;;;11.10;10.03;;;;;;;11.47;91.65;93252.50;5068216;28;20229;-67
2022/10/25 02:36:33;;;;;;;15.70;10.17;;;;;;;11.45;92.13;93252.00;5069773;28;20232;-66
2022/10/25 02:38:59;;;;;;;12.53;10.57;;;;;;;11.33;92.14;93226.94;5069660;28;20232;-68
2022/10/25 02:41:25;;;;;;;19.10;10.93;;;;;;;11.43;91.62;93241.81;5069816;28;20249;-67
2022/10/25 02:43:50;;;;;;;12.73;11.13;;;;;;;11.44;91.96;93245.97;5069551;28;20248;-67
2022/10/25 02:46:20;;;;;;;17.40;11.57;;;;;;;11.43;91.94;93244.41;5070488;28;20195;-67
2022/10/25 02:48:46;;;;;;;12.17;10.90;;;;;;;11.32;92.56;93243.69;5069498;28;20252;-67
2022/10/25 02:51:12;;;;;;;22.27;11.00;;;;;;;11.38;92.58;93247.03;5068341;28;20209;-66
2022/10/25 02:53:38;;;;;;;12.87;11.23;;;;;;;11.28;92.97;93242.63;5068618;28;20221;-66
2022/10/25 02:56:13;;;;;;;11.80;10.60;;;;;;;11.33;92.82;93245.22;5069857;28;20249;-66
2022/10/25 02:58:42;;;;;;;17.70;11.07;;;;;;;11.36;92.40;93260.38;5068998;28;20244;-66
2022/10/25 03:01:08;;;;;;;12.80;10.90;;;;;;;11.25;93.21;93260.69;5069571;28;20250;-66
2022/10/25 03:03:34;;;;;;;14.07;11.23;;;;;;;11.32;93.16;93258.56;5069058;28;20217;-66
2022/10/25 03:06:00;;;;;;;12.27;11.13;;;;;;;11.31;92.81;93257.03;5069484;28;20189;-66
2022/10/25 03:08:26;;;;;;;13.23;10.60;;;;;;;11.31;93.02;93244.72;5069111;28;20232;-68
2022/10/25 03:10:51;;;;;;;14.07;11.80;;;;;;;11.35;92.48;93253.59;5068485;28;20213;-67
2022/10/25 03:13:17;;;;;;;22.17;11.50;;;;;;;11.38;92.55;93251.50;5069149;28;20229;-66
2022/10/25 03:15:44;;;;;;;12.13;10.67;;;;;;;11.23;92.66;93234.84;5069995;28;20217;-67
2022/10/25 03:18:11;;;;;;;15.03;11.33;;;;;;;11.30;92.68;93235.31;5068321;28;20253;-67
2022/10/25 03:20:36;;;;;;;13.10;11.30;;;;;;;11.22;92.73;93233.25;5068953;28;20187;-67
2022/10/25 03:23:02;;;;;;;16.43;11.07;;;;;;;11.27;92.43;93230.63;5068464;28;20217;-66
2022/10/25 03:25:28;;;;;;;13.80;11.17;;;;;;;11.21;92.50;93231.69;5068828;28;20204;-66
2022/10/25 03:27:53;;;;;;;13.67;10.77;;;;;;;11.16;92.81;93231.69;5068226;28;20197;-66
2022/10/25 03:30:19;;;;;;;13.07;11.73;;;;;;;11.35;92.06;93235.31;5069282;28;20231;-66
2022/10/25 03:32:44;;;;;;;12.63;11.40;;;;;;;11.25;91.88;93245.78;5069025;28;20193;-67
2022/10/25 03:35:09;;;;;;;12.47;10.63;;;;;;;11.09;92.60;93239.06;5069102;28;20183;-68
2022/10/25 03:37:35;;;;;;;16.67;11.83;;;;;;;11.09;92.78;93251.31;5069072;28;20730;-67
2022/10/25 03:40:00;;;;;;;14.80;12.13;;;;;;;11.09;92.92;93254.72;5068696;28;20228;-66
2022/10/25 03:42:25;;;;;;;14.40;11.03;;;;;;;11.19;92.80;93259.16;5069035;28;20191;-67
2022/10/25 03:44:51;;;;;;;19.90;12.93;;;;;;;11.22;92.70;93251.53;5068608;28;20225;-69
2022/10/25 03:47:17;;;;;;;14.63;11.70;;;;;;;11.18;92.93;93252.34;5069513;28;20193;-67
2022/10/25 03:49:42;;;;;;;16.47;11.93;;;;;;;11.05;94.23;93238.00;5068721;28;20232;-66
2022/10/25 03:52:08;;;;;;;24.87;13.07;;;;;;;11.12;93.90;93242.97;5065678;28;20201;-65
2022/10/25 03:54:34;;;;;;;21.33;13.80;;;;;;;11.12;93.31;93238.53;5065554;28;20219;-68
2022/10/25 03:57:00;;;;;;;16.03;11.70;;;;;;;11.00;94.22;93229.41;5068275;28;20207;-67
2022/10/25 03:59:26;;;;;;;20.67;13.53;;;;;;;10.91;94.04;93220.56;5066657;28;20244;-68
2022/10/25 04:01:51;;;;;;;19.40;13.57;;;;;;;11.03;94.31;93228.88;5068672;28;20220;-68
2022/10/25 04:04:17;;;;;;;19.10;12.93;;;;;;;10.89;94.19;93233.09;5066439;28;20229;-66
2022/10/25 04:06:42;;;;;;;15.50;12.77;;;;;;;10.74;94.97;93230.50;5067984;28;20192;-68
2022/10/25 04:09:08;;;;;;;13.70;12.10;;;;;;;10.61;95.45;93220.59;5067661;28;20248;-67
2022/10/25 04:11:33;;;;;;;17.90;11.87;;;;;;;10.67;95.56;93233.41;5068079;28;20221;-68
2022/10/25 04:13:58;;;;;;;21.50;13.73;;;;;;;10.68;95.23;93232.34;5067988;28;20287;-68
2022/10/25 04:16:25;;;;;;;18.20;11.77;;;;;;;10.58;95.44;93237.59;5068680;28;20198;-68
2022/10/25 04:18:52;;;;;;;16.43;11.43;;;;;;;10.68;95.07;93229.72;5068319;28;20229;-66
2022/10/25 04:21:20;;;;;;;20.20;11.47;;;;;;;10.76;95.15;93244.06;5067484;28;20194;-66
2022/10/25 04:23:46;;;;;;;15.50;11.33;;;;;;;10.83;95.07;93242.75;5067733;28;20215;-66
2022/10/25 04:26:16;;;;;;;17.53;10.60;;;;;;;10.85;94.27;93230.22;5068702;28;20200;-67
2022/10/25 04:28:42;;;;;;;21.50;11.27;;;;;;;10.87;94.45;93228.13;5067877;28;20253;-66
2022/10/25 04:31:07;;;;;;;14.60;12.00;;;;;;;10.91;94.60;93231.00;5071438;28;20181;-68
2022/10/25 04:33:32;;;;;;;17.50;11.40;;;;;;;11.01;94.65;93228.34;5071113;28;20236;-69
2022/10/25 04:35:58;;;;;;;14.90;11.37;;;;;;;10.91;93.79;93225.78;5071564;28;20204;-69
2022/10/25 04:38:24;;;;;;;22.67;11.83;;;;;;;10.88;94.60;93229.69;5071446;28;20231;-69
2022/10/25 04:40:56;;;;;;;21.23;12.70;;;;;;;10.85;94.58;93238.06;5071693;28;20176;-69
2022/10/25 04:43:22;;;;;;;15.47;10.93;;;;;;;10.83;94.71;93242.75;5070140;28;20321;-70
2022/10/25 04:45:48;;;;;;;17.97;12.53;;;;;;;10.88;95.57;93253.19;5071342;28;20205;-69
2022/10/25 04:48:13;;;;;;;17.30;12.30;;;;;;;10.98;94.52;93255.81;5071093;28;20568;-70
2022/10/25 04:50:39;;;;;;;17.50;11.40;;;;;;;10.98;93.99;93255.81;5070494;28;20198;-70
2022/10/25 04:53:05;;;;;;;21.17;11.73;;;;;;;11.03;93.76;93247.97;5070685;28;20222;-71
2022/10/25 04:55:31;;;;;;;21.57;11.53;;;;;;;11.03;93.59;93253.19;5070376;28;20181;-70
2022/10/25 04:57:56;;;;;;;13.53;10.87;;;;;;;11.08;93.43;93242.69;5070835;28;20210;-70
2022/10/25 05:00:22;;;;;;;14.43;11.47;;;;;;;11.14;93.08;93236.41;5071490;28;21773;-69
2022/10/25 05:02:52;;;;;;;18.17;11.27;;;;;;;11.12;93.37;93250.78;5071512;28;20192;-70
2022/10/25 05:05:18;;;;;;;22.17;13.47;;;;;;;11.05;92.75;93245.09;5071113;28;20236;-70
2022/10/25 05:07:44;;;;;;;16.20;11.97;;;;;;;11.00;93.32;93240.63;5070827;28;20188;-70
2022/10/25 05:10:10;;;;;;;23.33;12.17;;;;;;;10.91;93.80;93244.06;5071728;28;20227;-70
2022/10/25 05:12:37;;;;;;;22.37;12.17;;;;;;;10.90;94.29;93247.72;5071818;28;20194;-70
2022/10/25 05:15:03;;;;;;;18.57;12.60;;;;;;;11.01;94.17;93247.44;5070106;28;20266;-71
2022/10/25 05:17:28;;;;;;;12.93;11.63;;;;;;;11.10;93.48;93245.84;5071335;28;20205;-70
2022/10/25 05:19:53;;;;;;;17.63;12.07;;;;;;;11.16;93.45;93250.00;5070867;28;20253;-70
2022/10/25 05:22:19;;;;;;;19.93;13.10;;;;;;;11.02;93.48;93242.97;5071404;28;20202;-69
2022/10/25 05:24:44;;;;;;;14.60;12.67;;;;;;;11.12;93.76;93253.41;5071093;28;20292;-71
2022/10/25 05:27:10;;;;;;;17.77;12.43;;;;;;;11.25;93.48;93264.06;5071152;28;20192;-70
2022/10/25 05:29:35;;;;;;;20.00;12.50;;;;;;;11.29;93.35;93257.28;5070970;28;20319;-70
2022/10/25 05:32:01;;;;;;;19.73;14.23;;;;;;;11.30;93.28;93263.28;5071633;28;20195;-69
2022/10/25 05:34:27;;;;;;;16.60;13.00;;;;;;;11.31;93.35;93255.16;5070924;28;20225;-69
2022/10/25 05:36:52;;;;;;;18.13;12.20;;;;;;;11.44;93.19;93266.88;5069725;28;20294;-69
2022/10/25 05:39:18;;;;;;;16.47;12.50;;;;;;;11.60;92.79;93265.00;5067881;28;20224;-67
2022/10/25 05:41:43;;;;;;;16.67;11.83;;;;;;;11.69;92.66;93269.44;5068664;28;20826;-67
2022/10/25 05:44:09;;;;;;;17.30;12.00;;;;;;;11.69;92.76;93268.66;5068738;28;20844;-66
2022/10/25 05:46:35;;;;;;;20.13;13.43;;;;;;;11.65;92.69;93267.63;5070039;28;20210;-66
2022/10/25 05:49:00;;;;;;;20.47;13.30;;;;;;;11.88;92.64;93283.47;5068995;28;20261;-68
2022/10/25 05:51:28;;;;;;;18.20;12.67;;;;;;;11.94;92.63;93289.47;5069291;28;20243;-68
2022/10/25 05:53:56;;;;;;;19.63;13.33;;;;;;;12.03;92.51;93304.31;5057862;28;20795;-67
2022/10/25 05:56:24;;;;;;;17.70;12.60;;;;;;;12.09;90.80;93307.72;5049248;28;20194;-67
2022/10/25 05:58:49;;;;;;;21.37;14.17;;;;;;;12.21;90.33;93303.72;5059170;28;20234;-67
2022/10/25 06:01:18;;;;;;;15.23;11.63;;;;;;;12.39;89.64;93318.78;5069994;28;20197;-68
2022/10/25 06:03:47;;;;;;;13.30;12.00;;;;;;;12.61;88.12;93318.38;5070028;28;20228;-67
2022/10/25 06:06:12;;;;;;;20.10;12.70;;;;;;;12.73;87.55;93310.97;5069925;28;20653;-68
2022/10/25 06:08:38;;;;;;;20.93;12.70;;;;;;;12.73;88.08;93316.19;5069960;28;20290;-66
2022/10/25 06:11:07;;;;;;;26.43;14.07;;;;;;;12.78;87.79;93308.28;5069804;28;20259;-66
2022/10/25 06:13:32;;;;;;;30.67;14.03;;;;;;;12.91;87.55;93318.13;5067874;28;20235;-66
2022/10/25 06:16:01;;;;;;;20.23;13.43;;;;;;;12.89;87.50;93325.47;5068910;28;20197;-65
2022/10/25 06:18:26;;;;;;;16.47;14.10;;;;;;;12.89;88.04;93321.03;5068829;28;20233;-67
2022/10/25 06:20:52;;;;;;;20.17;14.03;;;;;;;12.94;87.46;93326.25;5064283;28;20223;-68
2022/10/25 06:23:17;;;;;;;24.40;13.73;;;;;;;12.97;87.24;93330.13;5068343;28;20232;-67
2022/10/25 06:25:42;;;;;;;20.03;15.47;;;;;;;13.00;87.27;93336.69;5069173;28;20220;-66
2022/10/25 06:28:09;;;;;;;24.33;15.27;;;;;;;12.98;87.61;93323.84;5069069;28;20289;-68
2022/10/25 06:30:34;;;;;;;23.80;17.73;;;;;;;13.04;87.56;93337.72;5068006;28;20191;-68
2022/10/25 06:33:00;;;;;;;17.97;13.37;;;;;;;12.97;86.93;93311.78;5069034;28;20229;-68
2022/10/25 06:35:27;;;;;;;20.17;14.37;;;;;;;12.96;86.50;93325.97;5067852;28;20180;-68
2022/10/25 06:37:52;;;;;;;18.70;15.07;;;;;;;13.11;87.03;93328.47;5067688;28;20213;-68
2022/10/25 06:40:18;;;;;;;22.73;13.77;;;;;;;13.28;86.67;93326.22;5068226;28;21487;-65
2022/10/25 06:42:43;;;;;;;27.47;14.40;;;;;;;13.40;86.75;93325.84;5067914;28;20208;-68
2022/10/25 06:45:09;;;;;;;20.00;13.83;;;;;;;13.67;85.92;93331.31;5068730;28;20192;-68
2022/10/25 06:47:34;;;;;;;20.03;13.33;;;;;;;13.75;85.62;93333.34;5069081;28;20189;-67
2022/10/25 06:50:00;;;;;;;17.60;12.77;;;;;;;14.00;85.00;93325.97;5067662;28;20260;-68
2022/10/25 06:52:27;;;;;;;28.13;13.83;;;;;;;14.20;83.13;93314.41;5068805;28;20940;-69
2022/10/25 06:54:52;;;;;;;21.47;12.30;;;;;;;14.13;80.57;93293.75;5068060;28;20252;-67
2022/10/25 06:57:18;;;;;;;17.37;12.10;;;;;;;14.79;77.20;93345.38;5069082;28;20194;-66
2022/10/25 06:59:44;;;;;;;22.67;11.73;;;;;;;14.86;77.15;93337.94;5067816;28;21160;-68
2022/10/25 07:02:10;;;;;;;15.13;10.23;;;;;;;14.90;75.81;93328.41;5067483;28;20243;-68
2022/10/25 07:04:35;;;;;;;19.83;11.77;;;;;;;14.82;75.60;93329.06;5066896;28;20233;-68
2022/10/25 07:07:01;;;;;;;17.87;10.27;;;;;;;15.13;73.13;93319.63;5069263;28;20185;-68
2022/10/25 07:09:26;;;;;;;14.00;10.60;;;;;;;15.33;72.41;93332.44;5067516;28;20328;-68
2022/10/25 07:11:51;;;;;;;17.43;11.27;;;;;;;15.52;71.73;93325.25;5069038;28;20319;-68
2022/10/25 07:14:17;;;;;;;14.27;11.03;;;;;;;15.73;71.58;93319.38;5068587;28;20225;-69
2022/10/25 07:16:42;;;;;;;24.63;14.50;;;;;;;15.84;75.43;93325.22;5069071;28;20178;-68
2022/10/25 07:19:08;;;;;;;21.53;14.33;;;;;;;15.72;76.01;93314.41;5067836;28;20231;-70
2022/10/25 07:21:34;;;;;;;24.53;15.10;;;;;;;15.51;76.24;93311.34;5068327;28;20193;-68
2022/10/25 07:23:59;;;;;;;25.97;13.93;;;;;;;15.36;77.54;93318.69;5068122;28;20232;-68
2022/10/25 07:26:31;;;;;;;22.73;12.93;;;;;;;15.64;75.88;93333.50;5068624;28;20209;-67
2022/10/25 07:28:57;;;;;;;13.97;12.67;;;;;;;15.65;75.28;93325.31;5067838;28;20316;-67
2022/10/25 07:31:29;;;;;;;21.27;13.53;;;;;;;15.33;76.42;93316.66;5068012;28;20193;-67
2022/10/25 07:33:57;;;;;;;26.23;13.23;;;;;;;15.33;76.86;93329.81;5068312;28;20233;-67
2022/10/25 07:36:23;;;;;;;17.10;11.83;;;;;;;15.54;75.43;93325.75;5068220;28;20182;-68
2022/10/25 07:38:48;;;;;;;27.40;12.60;;;;;;;15.33;75.95;93314.03;5067984;28;20285;-68
2022/10/25 07:41:14;;;;;;;21.30;12.27;;;;;;;15.33;76.75;93329.81;5067595;28;20219;-67
2022/10/25 07:43:39;;;;;;;24.93;12.27;;;;;;;15.43;76.17;93317.28;5068323;28;20220;-68
2022/10/25 07:46:05;;;;;;;16.97;11.37;;;;;;;15.51;75.94;93315.81;5068302;28;20220;-68
2022/10/25 07:48:31;;;;;;;21.67;12.77;;;;;;;15.94;72.03;93320.53;5068412;28;20217;-70
2022/10/25 07:50:56;;;;;;;25.30;12.33;;;;;;;16.02;71.76;93326.94;5068829;28;20197;-67
2022/10/25 07:53:22;;;;;;;18.40;11.23;;;;;;;16.23;69.09;93333.38;5067437;28;20221;-67
2022/10/25 07:55:51;;;;;;;18.80;10.83;;;;;;;16.33;68.97;93329.75;5067583;28;20311;-67
2022/10/25 07:58:17;;;;;;;20.33;11.30;;;;;;;16.08;69.99;93325.00;5067433;28;20281;-69
2022/10/25 08:00:43;;;;;;;25.53;12.03;;;;;;;16.26;68.36;93326.72;5068424;28;20182;-68
2022/10/25 08:03:08;;;;;;;12.00;10.37;;;;;;;16.30;68.44;93320.56;5068290;28;20226;-70
2022/10/25 08:05:33;;;;;;;19.67;11.80;;;;;;;16.56;66.70;93321.63;5069611;28;20211;-69
2022/10/25 08:07:59;;;;;;;14.60;11.10;;;;;;;16.48;66.86;93313.66;5071085;28;20233;-70
2022/10/25 08:10:24;;;;;;;23.87;11.87;;;;;;;16.19;68.97;93311.31;5071613;28;20217;-69
2022/10/25 08:12:50;;;;;;;20.57;12.37;;;;;;;16.57;67.45;93317.13;5071898;28;20197;-70
2022/10/25 08:15:17;;;;;;;16.07;12.53;;;;;;;16.93;66.11;93323.16;5072229;28;20182;-69
2022/10/25 08:17:42;;;;;;;13.03;11.60;;;;;;;16.92;66.02;93318.94;5072356;28;20185;-69
2022/10/25 08:20:08;;;;;;;29.67;14.00;;;;;;;16.84;66.76;93315.19;5072185;28;20216;-70
2022/10/25 08:22:34;;;;;;;21.80;12.70;;;;;;;17.12;66.06;93321.13;5072343;28;20178;-72
2022/10/25 08:24:59;;;;;;;15.80;12.30;;;;;;;17.05;66.40;93323.41;5071942;28;20231;-70
2022/10/25 08:27:25;;;;;;;15.87;12.87;;;;;;;16.98;67.08;93331.72;5072370;28;20189;-69
2022/10/25 08:29:51;;;;;;;22.03;13.40;;;;;;;17.04;66.16;93322.59;5072059;28;20239;-69
2022/10/25 08:32:16;;;;;;;19.40;12.70;;;;;;;17.15;64.92;93321.28;5072341;28;20193;-70
2022/10/25 08:34:41;;;;;;;29.03;13.43;;;;;;;16.69;66.94;93317.38;5072167;28;20221;-68
2022/10/25 08:37:10;;;;;;;20.13;12.80;;;;;;;16.93;66.18;93305.50;5072130;28;21174;-71
2022/10/25 08:39:35;;;;;;;29.03;12.97;;;;;;;17.25;64.25;93315.78;5069232;28;20252;-69
2022/10/25 08:42:01;;;;;;;17.83;12.27;;;;;;;17.11;64.83;93314.28;5072031;28;20264;-70
2022/10/25 08:44:52;;;;;;;22.97;12.10;;;;;;;17.02;66.14;93311.59;5070887;28;20225;-70
2022/10/25 08:47:30;;;;;;;17.53;11.80;;;;;;;17.05;65.97;93300.44;5071541;28;20200;-69
2022/10/25 08:50:11;;;;;;;13.40;11.73;;;;;;;17.21;65.18;93314.81;5070748;28;20235;-70
2022/10/25 08:52:48;;;;;;;25.43;11.77;;;;;;;17.22;65.90;93305.03;5071704;28;20668;-71
2022/10/25 08:55:22;;;;;;;20.73;11.90;;;;;;;17.46;63.88;93308.91;5050589;28;20202;-68
2022/10/25 08:57:50;;;;;;;20.53;12.30;;;;;;;17.46;64.35;93301.00;5051540;28;20200;-72
2022/10/25 09:00:21;;;;;;;20.90;12.20;;;;;;;17.48;64.22;93288.28;5051745;28;20198;-72
2022/10/25 09:02:54;;;;;;;23.23;11.70;;;;;;;17.37;64.47;93292.22;5050837;28;20226;-72
2022/10/25 09:05:40;;;;;;;24.50;11.80;;;;;;;17.77;63.55;93302.84;5052037;28;21352;-71
2022/10/25 09:08:14;;;;;;;17.50;11.27;;;;;;;17.67;64.67;93305.75;5050889;28;20889;-71
2022/10/25 09:10:47;;;;;;;20.70;12.63;;;;;;;17.75;62.86;93299.72;5076190;28;20211;-68
2022/10/25 09:13:27;;;;;;;22.33;11.87;;;;;;;17.65;63.96;93302.66;5050041;28;20244;-68
2022/10/25 09:16:15;;;;;;;23.90;12.40;;;;;;;17.86;63.00;93303.66;5051100;28;20205;-70
2022/10/25 09:18:50;;;;;;;23.10;12.27;;;;;;;18.06;62.03;93297.81;5047953;28;20230;-71
2022/10/25 09:21:38;;;;;;;19.23;11.80;;;;;;;18.22;61.68;93293.66;5051738;28;20225;-70
2022/10/25 09:24:25;;;;;;;18.53;11.67;;;;;;;18.25;62.54;93290.41;5050768;28;20231;-70
2022/10/25 09:26:58;;;;;;;20.63;11.93;;;;;;;18.59;61.21;93290.47;5050194;28;20186;-71
2022/10/25 09:29:29;;;;;;;26.70;12.20;;;;;;;18.49;60.21;93267.75;5049998;28;20245;-70
2022/10/25 09:31:58;;;;;;;20.63;11.53;;;;;;;18.43;61.01;93294.63;5050305;28;20302;-69
2022/10/25 09:34:28;;;;;;;15.87;11.77;;;;;;;18.62;60.24;93290.63;5046756;28;20223;-70
2022/10/25 09:37:17;;;;;;;24.13;12.67;;;;;;;18.74;59.41;93296.06;5050207;28;20206;-70
2022/10/25 09:39:53;;;;;;;23.60;11.97;;;;;;;18.77;59.28;93290.16;5066081;28;20257;-70
2022/10/25 09:42:53;;;;;;;19.27;13.43;;;;;;;19.07;57.60;93289.22;5070743;28;20190;-69
2022/10/25 09:45:33;;;;;;;16.67;13.13;;;;;;;18.68;59.51;93288.59;5068327;28;20245;-69
2022/10/25 09:48:08;;;;;;;25.33;12.53;;;;;;;18.55;58.43;93286.91;5070312;28;20242;-70
2022/10/25 09:50:45;;;;;;;17.63;12.73;;;;;;;18.47;59.84;93287.66;5068619;28;20201;-69
2022/10/25 09:53:18;;;;;;;29.50;12.87;;;;;;;18.45;60.06;93279.25;5070090;28;20433;-70
2022/10/25 09:55:56;;;;;;;18.77;12.77;;;;;;;18.51;60.33;93280.66;5070661;28;20177;-70
2022/10/25 09:58:29;;;;;;;20.90;12.20;;;;;;;18.65;59.51;93276.00;5069219;28;20239;-69
2022/10/25 10:00:57;;;;;;;25.83;12.93;;;;;;;19.03;57.27;93275.06;5070028;28;20205;-69
2022/10/25 10:03:29;;;;;;;23.77;13.43;;;;;;;19.00;57.22;93266.97;5067398;28;20230;-69
2022/10/25 10:05:58;;;;;;;21.83;12.60;;;;;;;18.88;58.57;93264.16;5069610;28;20192;-69
2022/10/25 10:08:24;;;;;;;22.07;12.43;;;;;;;18.94;59.07;93265.56;5069100;28;20248;-69
2022/10/25 10:10:52;;;;;;;22.50;12.70;;;;;;;18.77;59.16;93249.72;5068718;28;20223;-70
2022/10/25 10:13:40;;;;;;;26.63;13.60;;;;;;;18.69;60.39;93253.91;5069644;28;20294;-70
2022/10/25 10:16:29;;;;;;;18.37;12.67;;;;;;;18.78;60.51;93251.25;5070587;28;20187;-70
2022/10/25 10:19:14;;;;;;;22.77;12.60;;;;;;;18.78;58.93;93246.75;5069195;28;20257;-69
2022/10/25 10:21:44;;;;;;;15.60;11.60;;;;;;;18.68;58.42;93240.97;5069731;28;20754;-70
2022/10/25 10:24:18;;;;;;;25.57;12.53;;;;;;;18.70;58.90;93229.03;5069165;28;20239;-70
2022/10/25 10:26:54;;;;;;;17.83;12.30;;;;;;;19.03;58.09;93243.28;5069886;28;20209;-71
2022/10/25 10:29:35;;;;;;;19.30;13.70;;;;;;;19.10;57.49;93245.44;5068288;28;20230;-69
2022/10/25 10:32:20;;;;;;;26.13;11.77;;;;;;;19.14;57.47;93243.72;5069819;28;20255;-68
2022/10/25 10:34:52;;;;;;;23.70;13.60;;;;;;;19.32;56.72;93237.31;5069237;28;20215;-69
2022/10/25 10:37:24;;;;;;;24.17;13.40;;;;;;;19.40;56.05;93241.81;5067230;28;20206;-69
2022/10/25 10:40:20;;;;;;;19.63;11.87;;;;;;;19.35;55.68;93233.28;5068851;28;20228;-69
2022/10/25 10:42:46;;;;;;;26.43;11.87;;;;;;;19.52;54.71;93227.91;5066774;28;20234;-69
2022/10/25 10:45:17;;;;;;;20.50;12.13;;;;;;;19.56;54.83;93220.88;5069643;28;20196;-70
2022/10/25 10:47:44;;;;;;;26.77;12.53;;;;;;;19.46;56.57;93214.06;5069334;28;20180;-70
2022/10/25 10:50:22;;;;;;;21.87;11.60;;;;;;;19.38;56.41;93212.22;5069596;28;20199;-68
2022/10/25 10:52:47;;;;;;;20.37;12.93;;;;;;;19.32;55.91;93204.75;5068490;28;20193;-69
2022/10/25 10:55:23;;;;;;;15.47;11.47;;;;;;;19.42;54.41;93213.16;5069834;28;20191;-69
2022/10/25 10:57:51;;;;;;;18.87;12.10;;;;;;;19.34;54.04;93202.56;5068356;28;20192;-70
2022/10/25 11:00:26;;;;;;;21.37;11.93;;;;;;;19.39;54.78;93208.50;5068611;28;20215;-69
2022/10/25 11:02:52;;;;;;;26.60;12.20;;;;;;;19.48;53.05;93208.44;5068992;28;20178;-70
2022/10/25 11:05:36;;;;;;;20.10;12.93;;;;;;;19.49;53.63;93194.88;5068901;28;20190;-69
2022/10/25 11:08:21;;;;;;;16.13;12.23;;;;;;;19.95;51.00;93205.41;5068856;28;20313;-70
2022/10/25 11:10:47;;;;;;;13.97;10.80;;;;;;;19.86;49.73;93203.91;5068567;28;20247;-70
2022/10/25 11:13:16;;;;;;;24.67;11.67;;;;;;;19.82;51.29;93189.72;5069174;28;20236;-71
2022/10/25 11:15:59;;;;;;;19.43;11.73;;;;;;;20.11;50.11;93198.44;5069370;28;21004;-71
2022/10/25 11:19:00;;;;;;;23.60;11.67;;;;;;;19.88;50.00;93197.19;5066665;28;20840;-70
2022/10/25 11:21:53;;;;;;;15.80;11.40;;;;;;;19.96;50.49;93193.69;5060399;28;20207;-71
2022/10/25 11:24:37;;;;;;;18.47;12.03;;;;;;;20.16;48.93;93197.50;5068763;28;20227;-70
2022/10/25 11:27:27;;;;;;;20.70;11.75;;;;;;;20.19;48.98;93189.66;5068537;28;20215;-71
2022/10/25 11:29:58;;;;;;;20.70;11.90;;;;;;;20.25;49.10;93188.38;5067262;28;20222;-70
2022/10/25 11:32:30;;;;;;;20.70;12.38;;;;;;;20.24;50.58;93183.41;5084595;28;20226;-72